METAR and TAF information
METAR FOR SPZO
ADDS - METARS form results

(1903 UTC 19 April 2018)
Data provider http://aviationweather.gov/adds/metars/
 
METAR text: SPZO 191900Z VRB03KT 9999 SCT050 21/03 Q1030 NOSIG RMK BIRD HAZARD RWY 28 PP000
Conditions at: SPZO (CUZCO/VELAZCO AS, PE) observed 1900 UTC 19 April 2018
Temperature: 21.0°C (70°F)
Dewpoint: 3.0°C (37°F) [RH = 30%]
Pressure (altimeter): 30.41 inches Hg (1030.0 mb)
Winds: variable direction winds at 3 MPH (3 knots; 1.6 m/s)
Visibility: 6 or more miles (10+ km)
Ceiling: at least 12,000 feet AGL
Clouds: scattered clouds at 5000 feet AGL
Weather: no significant weather observed at this time

METAR text: SPZO 191830Z VRB02KT 9999 SCT050 20/02 Q1030 NOSIG RMK BIRD HAZARD RWY 28
Conditions at: SPZO (CUZCO/VELAZCO AS, PE) observed 1830 UTC 19 April 2018
Temperature: 20.0°C (68°F)
Dewpoint: 2.0°C (36°F) [RH = 30%]
Pressure (altimeter): 30.41 inches Hg (1030.0 mb)
Winds: variable direction winds at 2 MPH (2 knots; 1.0 m/s)
Visibility: 6 or more miles (10+ km)
Ceiling: at least 12,000 feet AGL
Clouds: scattered clouds at 5000 feet AGL
Weather: no significant weather observed at this time

Forecast for: SPZO (CUZCO/VELAZCO AS, PE)
Text: TAF SPZO 191700Z 1918/2018 VRB03KT 9999 SCT050 SCT100 TX20/1919Z TN06/2011Z
Forecast period: 1800 to 2300 UTC 19 April 2018
Forecast type: FROM: standard forecast or significant change
Winds: variable direction winds at 3 MPH (3 knots; 1.6 m/s)
Visibility: 6 or more miles (10+ km)
Clouds: scattered clouds at 5000 feet AGL
scattered clouds at 10000 feet AGL
Weather: no significant weather forecast for this period
Forecast for: SPZO (CUZCO/VELAZCO AS, PE)
Text: TAF SPZO 191700Z 1918/2018 VRB03KT 9999 SCT050 SCT100 TX20/1919Z TN06/2011Z
Forecast period: 1800 to 2300 UTC 19 April 2018
Forecast type: FROM: standard forecast or significant change
Winds: variable direction winds at 3 MPH (3 knots; 1.6 m/s)
Visibility: 6 or more miles (10+ km)
Clouds: scattered clouds at 5000 feet AGL
scattered clouds at 10000 feet AGL
Weather: no significant weather forecast for this period
Forecast for: SPZO (CUZCO/VELAZCO AS, PE)
Text: TAF SPZO 191700Z 1918/2018 VRB03KT 9999 SCT050 SCT100 TX20/1919Z TN06/2011Z
Forecast period: 1900 to 2300 UTC 19 April 2018
Forecast type: TEMPORARY: The following changes expected for less than half the time period
Winds: from the N (360 degrees) at 14 MPH (12 knots; 6.2 m/s)
Ceiling: 10000 feet AGL
Clouds: few clouds at 4600 feet AGL
broken clouds at 10000 feet AGL
Weather: no significant weather forecast for this period
Forecast for: SPZO (CUZCO/VELAZCO AS, PE)
Text: TAF SPZO 191700Z 1918/2018 VRB03KT 9999 SCT050 SCT100 TX20/1919Z TN06/2011Z
Forecast period: 1900 to 2300 UTC 19 April 2018
Forecast type: TEMPORARY: The following changes expected for less than half the time period
Winds: from the N (360 degrees) at 14 MPH (12 knots; 6.2 m/s)
Ceiling: 10000 feet AGL
Clouds: few clouds at 4600 feet AGL
broken clouds at 10000 feet AGL
Weather: no significant weather forecast for this period
Forecast for: SPZO (CUZCO/VELAZCO AS, PE)
Text: TAF SPZO 191700Z 1918/2018 VRB03KT 9999 SCT050 SCT100 TX20/1919Z TN06/2011Z
Forecast period: 2300 UTC 19 April 2018 to 0800 UTC 20 April 2018
Forecast type: BECOMING: Conditions expected to become as follows by 0200 UTC 20 April 2018
Winds: variable direction winds at 5 MPH (4 knots; 2.1 m/s)
Visibility: 6 or more miles (10+ km)
Ceiling: 8000 feet AGL
Clouds: scattered clouds at 4300 feet AGL
broken clouds at 8000 feet AGL
Weather: no significant weather forecast for this period
Forecast for: SPZO (CUZCO/VELAZCO AS, PE)
Text: TAF SPZO 191700Z 1918/2018 VRB03KT 9999 SCT050 SCT100 TX20/1919Z TN06/2011Z
Forecast period: 2300 UTC 19 April 2018 to 0800 UTC 20 April 2018
Forecast type: BECOMING: Conditions expected to become as follows by 0200 UTC 20 April 2018
Winds: variable direction winds at 5 MPH (4 knots; 2.1 m/s)
Visibility: 6 or more miles (10+ km)
Ceiling: 8000 feet AGL
Clouds: scattered clouds at 4300 feet AGL
broken clouds at 8000 feet AGL
Weather: no significant weather forecast for this period
Forecast for: SPZO (CUZCO/VELAZCO AS, PE)
Text: TAF SPZO 191700Z 1918/2018 VRB03KT 9999 SCT050 SCT100 TX20/1919Z TN06/2011Z
Forecast period: 0500 to 0800 UTC 20 April 2018
Forecast type: TEMPORARY: The following changes expected for less than half the time period
Visibility: 5 miles (8 km)
Ceiling: 8000 feet AGL
Clouds: scattered clouds at 4000 feet AGL
overcast cloud deck at 8000 feet AGL
Weather: RA  (rain)
Forecast for: SPZO (CUZCO/VELAZCO AS, PE)
Text: TAF SPZO 191700Z 1918/2018 VRB03KT 9999 SCT050 SCT100 TX20/1919Z TN06/2011Z
Forecast period: 0500 to 0800 UTC 20 April 2018
Forecast type: TEMPORARY: The following changes expected for less than half the time period
Visibility: 5 miles (8 km)
Ceiling: 8000 feet AGL
Clouds: scattered clouds at 4000 feet AGL
overcast cloud deck at 8000 feet AGL
Weather: RA  (rain)
Forecast for: SPZO (CUZCO/VELAZCO AS, PE)
Text: TAF SPZO 191700Z 1918/2018 VRB03KT 9999 SCT050 SCT100 TX20/1919Z TN06/2011Z
Forecast period: 0800 to 1800 UTC 20 April 2018
Forecast type: BECOMING: Conditions expected to become as follows by 1000 UTC 20 April 2018
Winds: calm
Visibility: 6 or more miles (10+ km)
Ceiling: 10000 feet AGL
Clouds: scattered clouds at 4000 feet AGL
broken clouds at 10000 feet AGL
Weather: no significant weather forecast for this period
Forecast for: SPZO (CUZCO/VELAZCO AS, PE)
Text: TAF SPZO 191700Z 1918/2018 VRB03KT 9999 SCT050 SCT100 TX20/1919Z TN06/2011Z
Forecast period: 0800 to 1800 UTC 20 April 2018
Forecast type: BECOMING: Conditions expected to become as follows by 1000 UTC 20 April 2018
Winds: calm
Visibility: 6 or more miles (10+ km)
Ceiling: 10000 feet AGL
Clouds: scattered clouds at 4000 feet AGL
broken clouds at 10000 feet AGL
Weather: no significant weather forecast for this period

 Airport map

 Runway information
Runway 10 Runway length 11146 ft Runway width 148 ft
Runway elevation 10860 ft Runway displaced threshold 0 ft Runway heading 96
Runway 28 Runway length 11146 ft Runway width 148 ft
Runway elevation 10702 ft Runway displaced threshold 0 ft Runway heading 276

 Airport frequencies
Type APP Name CUSCO APP Frequency 120.6 MHZ
Type ATIS Name ATIS Frequency 127 MHZ
Type GND Name GND Frequency 121.9 MHZ
Type TWR Name CUSCO TWR Frequency 118.1 MHZ

 Airport & nearby NAVAIDS
Type VOR-DME Name Urcos Frequency 115600 KHZ
Type VOR-DME Name Cusco Frequency 114900 KHZ




Powered by VAM | Theme by g1g@byt3



Copyright © 2016 - 2018 Olympic Airlines Virtual. All rights reserved.

Olympic Airlines, Olympic Airways etc. are registered trademarks of
their respective owners and are hereby used only for educational
purposes.
Legal disclaimer